sensor_id;sensor_type;location;lat;lon;timestamp;P1;durP1;ratioP1;P2;durP2;ratioP2
73456;SDS011;61691;53.072;6.582;2023-03-14T00:01:27;33.40;;;6.05;;
73456;SDS011;61691;53.072;6.582;2023-03-14T00:03:54;30.88;;;5.85;;
73456;SDS011;61691;53.072;6.582;2023-03-14T00:06:20;27.67;;;5.35;;
73456;SDS011;61691;53.072;6.582;2023-03-14T00:08:47;26.70;;;6.32;;
73456;SDS011;61691;53.072;6.582;2023-03-14T00:11:16;23.80;;;5.65;;
73456;SDS011;61691;53.072;6.582;2023-03-14T00:13:48;27.35;;;5.97;;
73456;SDS011;61691;53.072;6.582;2023-03-14T00:16:15;28.00;;;5.05;;
73456;SDS011;61691;53.072;6.582;2023-03-14T00:18:42;27.85;;;5.15;;
73456;SDS011;61691;53.072;6.582;2023-03-14T00:21:09;27.15;;;5.38;;
73456;SDS011;61691;53.072;6.582;2023-03-14T00:23:38;29.48;;;6.07;;
73456;SDS011;61691;53.072;6.582;2023-03-14T00:26:10;24.90;;;6.15;;
73456;SDS011;61691;53.072;6.582;2023-03-14T00:28:39;25.95;;;4.65;;
73456;SDS011;61691;53.072;6.582;2023-03-14T00:31:06;26.33;;;5.32;;
73456;SDS011;61691;53.072;6.582;2023-03-14T00:33:35;26.98;;;5.32;;
73456;SDS011;61691;53.072;6.582;2023-03-14T00:36:03;26.40;;;4.70;;
73456;SDS011;61691;53.072;6.582;2023-03-14T00:38:32;28.17;;;4.85;;
73456;SDS011;61691;53.072;6.582;2023-03-14T00:40:59;26.02;;;4.85;;
73456;SDS011;61691;53.072;6.582;2023-03-14T00:43:28;24.27;;;5.13;;
73456;SDS011;61691;53.072;6.582;2023-03-14T00:45:55;25.88;;;5.15;;
73456;SDS011;61691;53.072;6.582;2023-03-14T00:48:23;26.85;;;5.25;;
73456;SDS011;61691;53.072;6.582;2023-03-14T00:50:50;24.15;;;5.10;;
73456;SDS011;61691;53.072;6.582;2023-03-14T00:53:17;31.35;;;5.60;;
73456;SDS011;61691;53.072;6.582;2023-03-14T00:55:43;28.45;;;5.05;;
73456;SDS011;61691;53.072;6.582;2023-03-14T00:58:11;28.10;;;5.03;;
73456;SDS011;61691;53.072;6.582;2023-03-14T01:00:39;26.38;;;4.88;;
73456;SDS011;61691;53.072;6.582;2023-03-14T01:03:07;25.92;;;4.93;;
73456;SDS011;61691;53.072;6.582;2023-03-14T01:05:35;24.73;;;4.80;;
73456;SDS011;61691;53.072;6.582;2023-03-14T01:08:02;25.88;;;5.25;;
73456;SDS011;61691;53.072;6.582;2023-03-14T01:10:30;25.75;;;5.05;;
73456;SDS011;61691;53.072;6.582;2023-03-14T01:12:57;25.35;;;4.63;;
73456;SDS011;61691;53.072;6.582;2023-03-14T01:15:23;22.52;;;4.28;;
73456;SDS011;61691;53.072;6.582;2023-03-14T01:17:50;27.00;;;4.65;;
73456;SDS011;61691;53.072;6.582;2023-03-14T01:20:17;25.42;;;4.57;;
73456;SDS011;61691;53.072;6.582;2023-03-14T01:22:44;25.30;;;4.65;;
73456;SDS011;61691;53.072;6.582;2023-03-14T01:25:14;22.20;;;4.57;;
73456;SDS011;61691;53.072;6.582;2023-03-14T01:27:43;23.48;;;4.72;;
73456;SDS011;61691;53.072;6.582;2023-03-14T01:30:10;24.15;;;4.57;;
73456;SDS011;61691;53.072;6.582;2023-03-14T01:32:38;24.00;;;4.60;;
73456;SDS011;61691;53.072;6.582;2023-03-14T01:35:05;24.17;;;5.20;;
73456;SDS011;61691;53.072;6.582;2023-03-14T01:37:33;26.42;;;5.30;;
73456;SDS011;61691;53.072;6.582;2023-03-14T01:39:59;20.90;;;3.83;;
73456;SDS011;61691;53.072;6.582;2023-03-14T01:42:26;23.27;;;4.65;;
73456;SDS011;61691;53.072;6.582;2023-03-14T01:47:21;21.42;;;4.40;;
73456;SDS011;61691;53.072;6.582;2023-03-14T01:49:50;26.33;;;4.13;;
73456;SDS011;61691;53.072;6.582;2023-03-14T01:55:06;22.42;;;4.00;;
73456;SDS011;61691;53.072;6.582;2023-03-14T01:57:36;22.38;;;4.20;;
73456;SDS011;61691;53.072;6.582;2023-03-14T02:02:38;21.38;;;3.63;;
73456;SDS011;61691;53.072;6.582;2023-03-14T02:05:07;20.45;;;4.18;;
73456;SDS011;61691;53.072;6.582;2023-03-14T02:07:43;19.30;;;3.55;;
73456;SDS011;61691;53.072;6.582;2023-03-14T02:10:16;22.05;;;3.47;;
73456;SDS011;61691;53.072;6.582;2023-03-14T02:12:46;20.10;;;3.55;;
73456;SDS011;61691;53.072;6.582;2023-03-14T02:15:14;19.92;;;3.83;;
73456;SDS011;61691;53.072;6.582;2023-03-14T02:17:41;27.30;;;4.15;;
73456;SDS011;61691;53.072;6.582;2023-03-14T02:20:23;22.27;;;3.92;;
73456;SDS011;61691;53.072;6.582;2023-03-14T02:22:52;19.05;;;3.45;;
73456;SDS011;61691;53.072;6.582;2023-03-14T02:28:04;21.60;;;3.58;;
73456;SDS011;61691;53.072;6.582;2023-03-14T02:30:31;23.00;;;3.97;;
73456;SDS011;61691;53.072;6.582;2023-03-14T02:33:09;20.67;;;3.67;;
73456;SDS011;61691;53.072;6.582;2023-03-14T02:35:41;21.15;;;3.47;;
73456;SDS011;61691;53.072;6.582;2023-03-14T02:41:21;19.50;;;3.13;;
73456;SDS011;61691;53.072;6.582;2023-03-14T02:43:48;21.00;;;3.28;;
73456;SDS011;61691;53.072;6.582;2023-03-14T02:46:19;19.30;;;3.17;;
73456;SDS011;61691;53.072;6.582;2023-03-14T02:51:26;23.30;;;4.18;;
73456;SDS011;61691;53.072;6.582;2023-03-14T02:53:54;19.23;;;3.28;;
73456;SDS011;61691;53.072;6.582;2023-03-14T02:56:21;18.38;;;2.72;;
73456;SDS011;61691;53.072;6.582;2023-03-14T02:58:48;18.80;;;3.38;;
73456;SDS011;61691;53.072;6.582;2023-03-14T03:01:14;18.02;;;2.83;;
73456;SDS011;61691;53.072;6.582;2023-03-14T03:03:41;16.55;;;2.92;;
73456;SDS011;61691;53.072;6.582;2023-03-14T03:06:08;20.42;;;3.20;;
73456;SDS011;61691;53.072;6.582;2023-03-14T03:08:35;16.58;;;2.92;;
73456;SDS011;61691;53.072;6.582;2023-03-14T03:11:01;17.10;;;2.50;;
73456;SDS011;61691;53.072;6.582;2023-03-14T03:13:28;18.73;;;3.20;;
73456;SDS011;61691;53.072;6.582;2023-03-14T03:15:55;15.73;;;2.70;;
73456;SDS011;61691;53.072;6.582;2023-03-14T03:18:22;20.13;;;2.80;;
73456;SDS011;61691;53.072;6.582;2023-03-14T03:20:48;18.60;;;3.00;;
73456;SDS011;61691;53.072;6.582;2023-03-14T03:23:16;20.85;;;3.58;;
73456;SDS011;61691;53.072;6.582;2023-03-14T03:25:47;20.27;;;3.83;;
73456;SDS011;61691;53.072;6.582;2023-03-14T03:28:15;19.50;;;3.58;;
73456;SDS011;61691;53.072;6.582;2023-03-14T03:30:41;18.15;;;3.42;;
73456;SDS011;61691;53.072;6.582;2023-03-14T03:33:09;22.30;;;4.60;;
73456;SDS011;61691;53.072;6.582;2023-03-14T03:35:46;22.42;;;4.35;;
73456;SDS011;61691;53.072;6.582;2023-03-14T03:38:16;23.13;;;4.78;;
73456;SDS011;61691;53.072;6.582;2023-03-14T03:40:43;20.38;;;4.43;;
73456;SDS011;61691;53.072;6.582;2023-03-14T03:43:10;22.58;;;5.82;;
73456;SDS011;61691;53.072;6.582;2023-03-14T03:45:37;22.42;;;4.60;;
73456;SDS011;61691;53.072;6.582;2023-03-14T03:48:04;23.67;;;5.22;;
73456;SDS011;61691;53.072;6.582;2023-03-14T03:50:30;26.58;;;5.00;;
73456;SDS011;61691;53.072;6.582;2023-03-14T03:52:57;19.73;;;4.20;;
73456;SDS011;61691;53.072;6.582;2023-03-14T03:55:24;25.65;;;5.43;;
73456;SDS011;61691;53.072;6.582;2023-03-14T03:57:51;23.42;;;4.85;;
73456;SDS011;61691;53.072;6.582;2023-03-14T04:00:18;21.23;;;4.78;;
73456;SDS011;61691;53.072;6.582;2023-03-14T04:02:45;22.80;;;5.13;;
73456;SDS011;61691;53.072;6.582;2023-03-14T04:05:12;20.27;;;4.78;;
73456;SDS011;61691;53.072;6.582;2023-03-14T04:07:39;21.30;;;4.57;;
73456;SDS011;61691;53.072;6.582;2023-03-14T04:10:05;23.63;;;5.20;;
73456;SDS011;61691;53.072;6.582;2023-03-14T04:12:32;22.25;;;4.63;;
73456;SDS011;61691;53.072;6.582;2023-03-14T04:14:59;22.10;;;5.35;;
73456;SDS011;61691;53.072;6.582;2023-03-14T04:17:26;22.58;;;5.25;;
73456;SDS011;61691;53.072;6.582;2023-03-14T04:19:53;21.88;;;5.55;;
73456;SDS011;61691;53.072;6.582;2023-03-14T04:22:20;23.15;;;5.30;;
73456;SDS011;61691;53.072;6.582;2023-03-14T04:24:46;18.80;;;4.65;;
73456;SDS011;61691;53.072;6.582;2023-03-14T04:27:13;21.13;;;5.32;;
73456;SDS011;61691;53.072;6.582;2023-03-14T04:29:41;22.73;;;5.63;;
73456;SDS011;61691;53.072;6.582;2023-03-14T04:32:09;21.50;;;5.50;;
73456;SDS011;61691;53.072;6.582;2023-03-14T04:34:36;19.15;;;5.00;;
73456;SDS011;61691;53.072;6.582;2023-03-14T04:37:02;23.17;;;5.53;;
73456;SDS011;61691;53.072;6.582;2023-03-14T04:39:29;21.05;;;5.03;;
73456;SDS011;61691;53.072;6.582;2023-03-14T04:41:56;25.55;;;6.32;;
73456;SDS011;61691;53.072;6.582;2023-03-14T04:44:22;21.95;;;5.85;;
73456;SDS011;61691;53.072;6.582;2023-03-14T04:46:49;23.08;;;5.60;;
73456;SDS011;61691;53.072;6.582;2023-03-14T04:49:16;24.38;;;4.82;;
73456;SDS011;61691;53.072;6.582;2023-03-14T04:51:43;20.58;;;5.20;;
73456;SDS011;61691;53.072;6.582;2023-03-14T04:54:09;24.73;;;6.10;;
73456;SDS011;61691;53.072;6.582;2023-03-14T04:56:36;21.08;;;5.72;;
73456;SDS011;61691;53.072;6.582;2023-03-14T04:59:03;17.98;;;4.20;;
73456;SDS011;61691;53.072;6.582;2023-03-14T05:01:30;20.63;;;4.60;;
73456;SDS011;61691;53.072;6.582;2023-03-14T05:03:57;19.35;;;4.78;;
73456;SDS011;61691;53.072;6.582;2023-03-14T05:06:24;16.98;;;3.97;;
73456;SDS011;61691;53.072;6.582;2023-03-14T05:08:50;19.05;;;5.13;;
73456;SDS011;61691;53.072;6.582;2023-03-14T05:11:17;21.15;;;5.22;;
73456;SDS011;61691;53.072;6.582;2023-03-14T05:13:44;23.13;;;5.05;;
73456;SDS011;61691;53.072;6.582;2023-03-14T05:16:11;20.67;;;4.93;;
73456;SDS011;61691;53.072;6.582;2023-03-14T05:18:38;22.90;;;4.40;;
73456;SDS011;61691;53.072;6.582;2023-03-14T05:21:05;21.30;;;5.13;;
73456;SDS011;61691;53.072;6.582;2023-03-14T05:23:31;20.55;;;4.97;;
73456;SDS011;61691;53.072;6.582;2023-03-14T05:25:58;20.13;;;4.60;;
73456;SDS011;61691;53.072;6.582;2023-03-14T05:28:25;21.70;;;5.07;;
73456;SDS011;61691;53.072;6.582;2023-03-14T05:30:51;21.20;;;4.82;;
73456;SDS011;61691;53.072;6.582;2023-03-14T05:33:18;18.85;;;5.20;;
73456;SDS011;61691;53.072;6.582;2023-03-14T05:35:45;25.67;;;5.68;;
73456;SDS011;61691;53.072;6.582;2023-03-14T05:38:11;25.08;;;6.22;;
73456;SDS011;61691;53.072;6.582;2023-03-14T05:40:38;23.15;;;5.60;;
73456;SDS011;61691;53.072;6.582;2023-03-14T05:43:05;22.67;;;5.90;;
73456;SDS011;61691;53.072;6.582;2023-03-14T05:45:34;22.80;;;5.68;;
73456;SDS011;61691;53.072;6.582;2023-03-14T05:48:01;24.05;;;6.63;;
73456;SDS011;61691;53.072;6.582;2023-03-14T05:50:29;22.05;;;5.88;;
73456;SDS011;61691;53.072;6.582;2023-03-14T05:52:56;21.50;;;5.13;;
73456;SDS011;61691;53.072;6.582;2023-03-14T05:55:22;20.77;;;4.82;;
73456;SDS011;61691;53.072;6.582;2023-03-14T05:57:49;22.85;;;5.97;;
73456;SDS011;61691;53.072;6.582;2023-03-14T06:00:16;22.77;;;5.50;;
73456;SDS011;61691;53.072;6.582;2023-03-14T06:02:43;21.45;;;5.85;;
73456;SDS011;61691;53.072;6.582;2023-03-14T06:05:10;20.90;;;6.03;;
73456;SDS011;61691;53.072;6.582;2023-03-14T06:07:37;19.55;;;5.22;;
73456;SDS011;61691;53.072;6.582;2023-03-14T06:10:04;20.10;;;5.22;;
73456;SDS011;61691;53.072;6.582;2023-03-14T06:12:31;23.05;;;5.85;;
73456;SDS011;61691;53.072;6.582;2023-03-14T06:14:58;19.70;;;4.88;;
73456;SDS011;61691;53.072;6.582;2023-03-14T06:17:25;20.08;;;5.10;;
73456;SDS011;61691;53.072;6.582;2023-03-14T06:19:51;18.45;;;4.82;;
73456;SDS011;61691;53.072;6.582;2023-03-14T06:22:18;19.55;;;5.40;;
73456;SDS011;61691;53.072;6.582;2023-03-14T06:24:45;18.05;;;4.50;;
73456;SDS011;61691;53.072;6.582;2023-03-14T06:27:12;16.52;;;4.20;;
73456;SDS011;61691;53.072;6.582;2023-03-14T06:29:39;20.63;;;3.88;;
73456;SDS011;61691;53.072;6.582;2023-03-14T06:32:05;17.25;;;4.13;;
73456;SDS011;61691;53.072;6.582;2023-03-14T06:34:32;18.95;;;4.40;;
73456;SDS011;61691;53.072;6.582;2023-03-14T06:36:59;22.25;;;5.10;;
73456;SDS011;61691;53.072;6.582;2023-03-14T06:39:26;17.77;;;4.20;;
73456;SDS011;61691;53.072;6.582;2023-03-14T06:41:52;19.70;;;4.32;;
73456;SDS011;61691;53.072;6.582;2023-03-14T06:44:19;22.38;;;4.18;;
73456;SDS011;61691;53.072;6.582;2023-03-14T06:46:45;17.23;;;3.97;;
73456;SDS011;61691;53.072;6.582;2023-03-14T06:49:12;17.70;;;4.75;;
73456;SDS011;61691;53.072;6.582;2023-03-14T06:51:39;8.70;;;1.92;;
73456;SDS011;61691;53.072;6.582;2023-03-14T06:54:05;15.98;;;3.00;;
73456;SDS011;61691;53.072;6.582;2023-03-14T06:56:32;12.25;;;2.30;;
73456;SDS011;61691;53.072;6.582;2023-03-14T06:58:59;12.55;;;2.15;;
73456;SDS011;61691;53.072;6.582;2023-03-14T07:01:26;16.13;;;2.30;;
73456;SDS011;61691;53.072;6.582;2023-03-14T07:03:55;11.85;;;1.85;;
73456;SDS011;61691;53.072;6.582;2023-03-14T07:06:23;17.67;;;2.30;;
73456;SDS011;61691;53.072;6.582;2023-03-14T07:08:50;13.20;;;2.25;;
73456;SDS011;61691;53.072;6.582;2023-03-14T07:11:17;19.65;;;2.97;;
73456;SDS011;61691;53.072;6.582;2023-03-14T07:13:44;18.35;;;3.03;;
73456;SDS011;61691;53.072;6.582;2023-03-14T07:16:10;16.83;;;2.65;;
73456;SDS011;61691;53.072;6.582;2023-03-14T07:18:37;14.90;;;2.47;;
73456;SDS011;61691;53.072;6.582;2023-03-14T07:21:05;15.75;;;2.92;;
73456;SDS011;61691;53.072;6.582;2023-03-14T07:23:33;18.50;;;2.53;;
73456;SDS011;61691;53.072;6.582;2023-03-14T07:26:00;14.95;;;2.10;;
73456;SDS011;61691;53.072;6.582;2023-03-14T07:28:27;13.90;;;1.80;;
73456;SDS011;61691;53.072;6.582;2023-03-14T07:30:53;17.42;;;2.78;;
73456;SDS011;61691;53.072;6.582;2023-03-14T07:33:20;12.70;;;1.83;;
73456;SDS011;61691;53.072;6.582;2023-03-14T07:35:48;8.20;;;1.33;;
73456;SDS011;61691;53.072;6.582;2023-03-14T07:38:15;9.95;;;1.73;;
73456;SDS011;61691;53.072;6.582;2023-03-14T07:40:42;12.82;;;1.63;;
73456;SDS011;61691;53.072;6.582;2023-03-14T07:43:09;10.88;;;2.13;;
73456;SDS011;61691;53.072;6.582;2023-03-14T07:45:36;9.00;;;1.42;;
73456;SDS011;61691;53.072;6.582;2023-03-14T07:48:08;8.60;;;1.73;;
73456;SDS011;61691;53.072;6.582;2023-03-14T07:50:36;12.30;;;1.60;;
73456;SDS011;61691;53.072;6.582;2023-03-14T07:53:03;8.55;;;1.20;;
73456;SDS011;61691;53.072;6.582;2023-03-14T07:55:29;8.65;;;1.58;;
73456;SDS011;61691;53.072;6.582;2023-03-14T07:57:56;9.50;;;1.70;;
73456;SDS011;61691;53.072;6.582;2023-03-14T08:00:23;8.05;;;1.35;;
73456;SDS011;61691;53.072;6.582;2023-03-14T08:02:50;11.60;;;1.90;;
73456;SDS011;61691;53.072;6.582;2023-03-14T08:05:17;5.15;;;1.00;;
73456;SDS011;61691;53.072;6.582;2023-03-14T08:07:43;6.80;;;1.30;;
73456;SDS011;61691;53.072;6.582;2023-03-14T08:10:10;9.15;;;1.45;;
73456;SDS011;61691;53.072;6.582;2023-03-14T08:12:37;8.52;;;1.10;;
73456;SDS011;61691;53.072;6.582;2023-03-14T08:15:04;5.45;;;1.13;;
73456;SDS011;61691;53.072;6.582;2023-03-14T08:17:31;9.05;;;1.40;;
73456;SDS011;61691;53.072;6.582;2023-03-14T08:19:58;8.15;;;1.30;;
73456;SDS011;61691;53.072;6.582;2023-03-14T08:22:25;6.38;;;1.25;;
73456;SDS011;61691;53.072;6.582;2023-03-14T08:24:51;6.50;;;1.27;;
73456;SDS011;61691;53.072;6.582;2023-03-14T08:27:18;8.90;;;1.25;;
73456;SDS011;61691;53.072;6.582;2023-03-14T08:29:44;9.10;;;1.67;;
73456;SDS011;61691;53.072;6.582;2023-03-14T08:32:11;8.48;;;1.30;;
73456;SDS011;61691;53.072;6.582;2023-03-14T08:34:38;10.85;;;1.38;;
73456;SDS011;61691;53.072;6.582;2023-03-14T08:37:05;7.95;;;1.30;;
73456;SDS011;61691;53.072;6.582;2023-03-14T08:39:51;8.77;;;1.50;;
73456;SDS011;61691;53.072;6.582;2023-03-14T08:42:18;13.48;;;2.08;;
73456;SDS011;61691;53.072;6.582;2023-03-14T08:44:45;9.90;;;1.48;;
73456;SDS011;61691;53.072;6.582;2023-03-14T08:47:11;9.02;;;1.48;;
73456;SDS011;61691;53.072;6.582;2023-03-14T08:49:38;14.50;;;1.73;;
73456;SDS011;61691;53.072;6.582;2023-03-14T08:52:05;15.90;;;1.70;;
73456;SDS011;61691;53.072;6.582;2023-03-14T08:54:32;16.15;;;2.22;;
73456;SDS011;61691;53.072;6.582;2023-03-14T08:56:59;12.88;;;1.85;;
73456;SDS011;61691;53.072;6.582;2023-03-14T08:59:25;13.27;;;1.83;;
73456;SDS011;61691;53.072;6.582;2023-03-14T09:01:52;15.93;;;2.65;;
73456;SDS011;61691;53.072;6.582;2023-03-14T09:04:20;18.75;;;2.78;;
73456;SDS011;61691;53.072;6.582;2023-03-14T09:06:48;15.93;;;2.70;;
73456;SDS011;61691;53.072;6.582;2023-03-14T09:09:14;18.50;;;2.58;;
73456;SDS011;61691;53.072;6.582;2023-03-14T09:11:41;18.30;;;2.70;;
73456;SDS011;61691;53.072;6.582;2023-03-14T09:14:08;16.73;;;2.70;;
73456;SDS011;61691;53.072;6.582;2023-03-14T09:16:35;21.52;;;2.95;;
73456;SDS011;61691;53.072;6.582;2023-03-14T09:19:01;23.77;;;3.35;;
73456;SDS011;61691;53.072;6.582;2023-03-14T09:21:28;18.52;;;2.63;;
73456;SDS011;61691;53.072;6.582;2023-03-14T09:23:55;21.58;;;3.15;;
73456;SDS011;61691;53.072;6.582;2023-03-14T09:26:21;21.35;;;3.45;;
73456;SDS011;61691;53.072;6.582;2023-03-14T09:28:48;21.65;;;3.97;;
73456;SDS011;61691;53.072;6.582;2023-03-14T09:31:15;25.55;;;3.58;;
73456;SDS011;61691;53.072;6.582;2023-03-14T09:33:42;25.27;;;3.45;;
73456;SDS011;61691;53.072;6.582;2023-03-14T09:36:09;29.42;;;4.15;;
73456;SDS011;61691;53.072;6.582;2023-03-14T09:38:36;21.17;;;3.00;;
73456;SDS011;61691;53.072;6.582;2023-03-14T09:41:06;21.63;;;3.75;;
73456;SDS011;61691;53.072;6.582;2023-03-14T09:43:41;24.42;;;4.45;;
73456;SDS011;61691;53.072;6.582;2023-03-14T09:46:09;29.70;;;4.00;;
73456;SDS011;61691;53.072;6.582;2023-03-14T09:48:37;21.85;;;3.53;;
73456;SDS011;61691;53.072;6.582;2023-03-14T09:51:05;22.35;;;4.57;;
73456;SDS011;61691;53.072;6.582;2023-03-14T09:53:45;27.88;;;3.40;;
73456;SDS011;61691;53.072;6.582;2023-03-14T09:56:16;19.98;;;3.47;;
73456;SDS011;61691;53.072;6.582;2023-03-14T09:58:48;19.80;;;2.97;;
73456;SDS011;61691;53.072;6.582;2023-03-14T10:01:20;19.02;;;3.25;;
73456;SDS011;61691;53.072;6.582;2023-03-14T10:03:52;22.02;;;3.10;;
73456;SDS011;61691;53.072;6.582;2023-03-14T10:06:22;26.33;;;3.75;;
73456;SDS011;61691;53.072;6.582;2023-03-14T10:08:52;20.23;;;3.40;;
73456;SDS011;61691;53.072;6.582;2023-03-14T10:11:20;25.27;;;3.97;;
73456;SDS011;61691;53.072;6.582;2023-03-14T10:16:42;25.02;;;3.90;;
73456;SDS011;61691;53.072;6.582;2023-03-14T10:19:12;25.38;;;4.38;;
73456;SDS011;61691;53.072;6.582;2023-03-14T10:21:41;28.92;;;4.63;;
73456;SDS011;61691;53.072;6.582;2023-03-14T10:24:18;25.17;;;3.72;;
73456;SDS011;61691;53.072;6.582;2023-03-14T10:26:53;27.33;;;4.82;;
73456;SDS011;61691;53.072;6.582;2023-03-14T10:31:57;29.33;;;4.65;;
73456;SDS011;61691;53.072;6.582;2023-03-14T10:34:33;25.13;;;3.70;;
73456;SDS011;61691;53.072;6.582;2023-03-14T10:37:16;21.23;;;3.28;;
73456;SDS011;61691;53.072;6.582;2023-03-14T10:39:49;19.42;;;3.63;;
73456;SDS011;61691;53.072;6.582;2023-03-14T10:42:25;22.25;;;3.75;;
73456;SDS011;61691;53.072;6.582;2023-03-14T10:44:57;23.52;;;3.58;;
73456;SDS011;61691;53.072;6.582;2023-03-14T10:47:27;19.23;;;3.33;;
73456;SDS011;61691;53.072;6.582;2023-03-14T10:49:56;21.33;;;3.67;;
73456;SDS011;61691;53.072;6.582;2023-03-14T10:52:46;19.88;;;3.40;;
73456;SDS011;61691;53.072;6.582;2023-03-14T10:55:29;22.95;;;3.90;;
73456;SDS011;61691;53.072;6.582;2023-03-14T11:00:47;20.17;;;2.80;;
73456;SDS011;61691;53.072;6.582;2023-03-14T11:03:19;21.60;;;3.92;;
73456;SDS011;61691;53.072;6.582;2023-03-14T11:05:56;18.50;;;3.05;;
73456;SDS011;61691;53.072;6.582;2023-03-14T11:08:34;18.92;;;2.75;;
73456;SDS011;61691;53.072;6.582;2023-03-14T11:11:20;26.55;;;3.60;;
73456;SDS011;61691;53.072;6.582;2023-03-14T11:16:22;15.40;;;2.72;;
73456;SDS011;61691;53.072;6.582;2023-03-14T11:19:00;20.52;;;3.60;;
73456;SDS011;61691;53.072;6.582;2023-03-14T11:21:52;16.83;;;2.35;;
73456;SDS011;61691;53.072;6.582;2023-03-14T11:29:45;17.60;;;3.00;;
73456;SDS011;61691;53.072;6.582;2023-03-14T11:35:22;14.30;;;2.03;;
73456;SDS011;61691;53.072;6.582;2023-03-14T11:38:09;15.13;;;2.15;;
73456;SDS011;61691;53.072;6.582;2023-03-14T11:40:46;17.08;;;3.17;;
73456;SDS011;61691;53.072;6.582;2023-03-14T11:46:01;16.30;;;2.50;;
73456;SDS011;61691;53.072;6.582;2023-03-14T11:48:36;17.65;;;2.30;;
73456;SDS011;61691;53.072;6.582;2023-03-14T11:51:13;13.95;;;2.60;;
73456;SDS011;61691;53.072;6.582;2023-03-14T11:54:00;16.65;;;1.90;;
73456;SDS011;61691;53.072;6.582;2023-03-14T11:59:27;14.60;;;2.35;;
73456;SDS011;61691;53.072;6.582;2023-03-14T12:04:57;16.50;;;2.20;;
73456;SDS011;61691;53.072;6.582;2023-03-14T12:10:25;13.48;;;2.00;;
73456;SDS011;61691;53.072;6.582;2023-03-14T12:12:52;13.75;;;2.30;;
73456;SDS011;61691;53.072;6.582;2023-03-14T12:15:20;17.20;;;2.30;;
73456;SDS011;61691;53.072;6.582;2023-03-14T12:17:55;14.85;;;2.53;;
73456;SDS011;61691;53.072;6.582;2023-03-14T12:20:23;13.55;;;2.53;;
73456;SDS011;61691;53.072;6.582;2023-03-14T12:25:21;11.02;;;2.30;;
73456;SDS011;61691;53.072;6.582;2023-03-14T12:30:24;13.88;;;2.47;;
73456;SDS011;61691;53.072;6.582;2023-03-14T12:41:08;18.45;;;2.67;;
73456;SDS011;61691;53.072;6.582;2023-03-14T12:43:39;15.45;;;2.53;;
73456;SDS011;61691;53.072;6.582;2023-03-14T12:46:07;13.95;;;2.30;;
73456;SDS011;61691;53.072;6.582;2023-03-14T12:51:36;12.38;;;1.88;;
73456;SDS011;61691;53.072;6.582;2023-03-14T12:59:33;16.25;;;2.40;;
73456;SDS011;61691;53.072;6.582;2023-03-14T13:02:13;15.93;;;2.47;;
73456;SDS011;61691;53.072;6.582;2023-03-14T13:10:00;18.27;;;3.00;;
73456;SDS011;61691;53.072;6.582;2023-03-14T13:15:35;14.88;;;2.42;;
73456;SDS011;61691;53.072;6.582;2023-03-14T13:18:15;15.00;;;2.72;;
73456;SDS011;61691;53.072;6.582;2023-03-14T13:20:54;13.93;;;2.40;;
73456;SDS011;61691;53.072;6.582;2023-03-14T13:23:25;15.35;;;2.40;;
73456;SDS011;61691;53.072;6.582;2023-03-14T13:25:54;17.48;;;3.33;;
73456;SDS011;61691;53.072;6.582;2023-03-14T13:28:21;14.90;;;2.42;;
73456;SDS011;61691;53.072;6.582;2023-03-14T13:30:49;15.80;;;2.10;;
73456;SDS011;61691;53.072;6.582;2023-03-14T13:33:21;16.48;;;2.42;;
73456;SDS011;61691;53.072;6.582;2023-03-14T13:35:54;12.73;;;2.20;;
73456;SDS011;61691;53.072;6.582;2023-03-14T13:38:22;15.52;;;2.13;;
73456;SDS011;61691;53.072;6.582;2023-03-14T13:40:51;13.77;;;2.20;;
73456;SDS011;61691;53.072;6.582;2023-03-14T13:43:35;14.48;;;1.85;;
73456;SDS011;61691;53.072;6.582;2023-03-14T13:46:06;14.95;;;2.38;;
73456;SDS011;61691;53.072;6.582;2023-03-14T13:48:44;11.98;;;1.85;;
73456;SDS011;61691;53.072;6.582;2023-03-14T13:51:15;17.75;;;2.08;;
73456;SDS011;61691;53.072;6.582;2023-03-14T13:53:54;13.75;;;2.25;;
73456;SDS011;61691;53.072;6.582;2023-03-14T13:56:22;13.93;;;2.33;;
73456;SDS011;61691;53.072;6.582;2023-03-14T13:58:51;16.43;;;2.23;;
73456;SDS011;61691;53.072;6.582;2023-03-14T14:01:22;14.10;;;2.30;;
73456;SDS011;61691;53.072;6.582;2023-03-14T14:03:52;20.40;;;2.65;;
73456;SDS011;61691;53.072;6.582;2023-03-14T14:06:28;15.23;;;2.23;;
73456;SDS011;61691;53.072;6.582;2023-03-14T14:09:13;18.10;;;2.40;;
73456;SDS011;61691;53.072;6.582;2023-03-14T14:12:07;16.23;;;2.50;;
73456;SDS011;61691;53.072;6.582;2023-03-14T14:14:46;16.67;;;3.08;;
73456;SDS011;61691;53.072;6.582;2023-03-14T14:17:15;16.30;;;2.53;;
73456;SDS011;61691;53.072;6.582;2023-03-14T14:19:46;8.82;;;1.70;;
73456;SDS011;61691;53.072;6.582;2023-03-14T14:22:14;13.07;;;2.45;;
73456;SDS011;61691;53.072;6.582;2023-03-14T14:24:41;11.35;;;2.25;;
73456;SDS011;61691;53.072;6.582;2023-03-14T14:27:18;17.05;;;2.10;;
73456;SDS011;61691;53.072;6.582;2023-03-14T14:30:36;14.60;;;2.05;;
73456;SDS011;61691;53.072;6.582;2023-03-14T14:32:44;13.85;;;2.55;;
73456;SDS011;61691;53.072;6.582;2023-03-14T14:35:25;12.75;;;2.10;;
73456;SDS011;61691;53.072;6.582;2023-03-14T14:37:57;11.45;;;2.08;;
73456;SDS011;61691;53.072;6.582;2023-03-14T14:40:25;15.27;;;2.47;;
73456;SDS011;61691;53.072;6.582;2023-03-14T14:42:54;16.10;;;2.53;;
73456;SDS011;61691;53.072;6.582;2023-03-14T14:45:28;16.45;;;2.63;;
73456;SDS011;61691;53.072;6.582;2023-03-14T14:47:57;14.90;;;2.47;;
73456;SDS011;61691;53.072;6.582;2023-03-14T14:50:34;21.40;;;2.40;;
73456;SDS011;61691;53.072;6.582;2023-03-14T14:53:21;16.48;;;2.88;;
73456;SDS011;61691;53.072;6.582;2023-03-14T14:55:51;17.10;;;2.50;;
73456;SDS011;61691;53.072;6.582;2023-03-14T14:58:34;17.42;;;2.80;;
73456;SDS011;61691;53.072;6.582;2023-03-14T15:01:05;14.20;;;2.65;;
73456;SDS011;61691;53.072;6.582;2023-03-14T15:03:41;16.40;;;2.72;;
73456;SDS011;61691;53.072;6.582;2023-03-14T15:06:10;16.85;;;2.80;;
73456;SDS011;61691;53.072;6.582;2023-03-14T15:08:39;13.88;;;2.72;;
73456;SDS011;61691;53.072;6.582;2023-03-14T15:11:08;13.55;;;2.20;;
73456;SDS011;61691;53.072;6.582;2023-03-14T15:13:42;13.82;;;2.08;;
73456;SDS011;61691;53.072;6.582;2023-03-14T15:16:10;16.52;;;2.80;;
73456;SDS011;61691;53.072;6.582;2023-03-14T15:18:38;17.63;;;2.30;;
73456;SDS011;61691;53.072;6.582;2023-03-14T15:21:06;17.42;;;2.50;;
73456;SDS011;61691;53.072;6.582;2023-03-14T15:23:32;15.50;;;2.38;;
73456;SDS011;61691;53.072;6.582;2023-03-14T15:25:59;11.38;;;2.13;;
73456;SDS011;61691;53.072;6.582;2023-03-14T15:28:27;11.55;;;1.92;;
73456;SDS011;61691;53.072;6.582;2023-03-14T15:30:55;18.17;;;2.95;;
73456;SDS011;61691;53.072;6.582;2023-03-14T15:33:23;14.43;;;2.08;;
73456;SDS011;61691;53.072;6.582;2023-03-14T15:35:51;18.17;;;2.25;;
73456;SDS011;61691;53.072;6.582;2023-03-14T15:38:20;17.20;;;2.65;;
73456;SDS011;61691;53.072;6.582;2023-03-14T15:40:49;14.55;;;2.65;;
73456;SDS011;61691;53.072;6.582;2023-03-14T15:43:18;18.38;;;2.75;;
73456;SDS011;61691;53.072;6.582;2023-03-14T15:45:45;18.05;;;2.92;;
73456;SDS011;61691;53.072;6.582;2023-03-14T15:48:19;20.02;;;3.50;;
73456;SDS011;61691;53.072;6.582;2023-03-14T15:50:47;19.85;;;3.13;;
73456;SDS011;61691;53.072;6.582;2023-03-14T15:53:14;16.63;;;2.50;;
73456;SDS011;61691;53.072;6.582;2023-03-14T15:55:41;15.15;;;2.55;;
73456;SDS011;61691;53.072;6.582;2023-03-14T15:58:10;14.73;;;2.00;;
73456;SDS011;61691;53.072;6.582;2023-03-14T16:00:47;13.75;;;2.20;;
73456;SDS011;61691;53.072;6.582;2023-03-14T16:03:15;12.35;;;2.08;;
73456;SDS011;61691;53.072;6.582;2023-03-14T16:05:42;12.30;;;2.03;;